Atlantic Elm — 9HA3054 — position and weather

sailwx.info

Track history (hours):
 
Tides and Currents Weather Stations Pressure Air Temp Water Temp Dewpoint Dewpoint Depression Visibility Wind Speed Wind Dir Waves Ship Positions

Atlantic Elm

Last reported at 2015-Mar-29 10:29 UTC. Time now 2015-Mar-29 10:44 UTC.
Position N 40°43' E 029°28'.

Length 190 m; draft 3.7 m.

Type: Cargo ship. MMSI: 229081000.

Date/timePositionNaut miles runAvg speedWind from/ knotsBaromVisibWave heightAir tempDewpointWater temp
2015-Mar-29 10:29N 40°43' E 029°28'0 0.0
2015-Mar-29 09:29N 40°43' E 029°28'0 0.0
2015-Mar-29 08:29N 40°43' E 029°28'0 0.0
2015-Mar-29 07:11N 40°43' E 029°28'0 0.0
2015-Mar-29 06:23N 40°43' E 029°28'0 0.0
2015-Mar-29 05:29N 40°43' E 029°28'0 0.0
2015-Mar-29 04:05N 40°43' E 029°28'0 0.0
2015-Mar-29 03:23N 40°43' E 029°28'0 0.0
2015-Mar-29 02:23N 40°43' E 029°28'0 0.0
2015-Mar-29 01:11N 40°43' E 029°28'0 0.0
2015-Mar-29 00:23N 40°43' E 029°28'0 0.0
2015-Mar-28 23:29N 40°43' E 029°28'0 0.0
2015-Mar-28 22:17N 40°43' E 029°28'0 0.0
2015-Mar-28 20:23N 40°43' E 029°28'0 0.0
2015-Mar-28 19:29N 40°43' E 029°28'0 0.0
2015-Mar-28 18:32N 40°43' E 029°28'0 0.0
2015-Mar-28 16:32N 40°43' E 029°28'0 0.0
2015-Mar-28 14:26N 40°43' E 029°28'0 0.0
2015-Mar-28 13:32N 40°43' E 029°28'0 0.0
2015-Mar-28 12:32N 40°43' E 029°28'0 0.0
2015-Mar-28 11:32N 40°43' E 029°28'0 0.0
2015-Mar-28 10:26N 40°43' E 029°28'0 0.0
2015-Mar-28 09:32N 40°43' E 029°28'0 0.0
2015-Mar-28 08:32N 40°43' E 029°28'0 0.0
2015-Mar-28 07:26N 40°43' E 029°28'0 0.0
2015-Mar-28 06:32N 40°43' E 029°28'0 0.0
2015-Mar-27 16:26N 40°43' E 029°28'0 0.0
2015-Mar-27 15:32N 40°43' E 029°28'0 0.0
2015-Mar-27 14:32N 40°43' E 029°28'0 0.0
2015-Mar-27 13:08N 40°43' E 029°28'0 0.0
2015-Mar-25 15:27N 40°43' E 029°28'0 0.0
2015-Mar-25 14:03N 40°43' E 029°28'0 0.0
2015-Mar-24 12:13N 40°43' E 029°28'  
2015-Mar-21 15:20N 40°43' E 029°28'0 0.0
2015-Mar-21 14:33N 40°43' E 029°28'4 3.9
2015-Mar-21 13:32N 40°43' E 029°23'3 2.3
2015-Mar-21 12:15N 40°41' E 029°20'0 0.0
2015-Mar-21 11:09N 40°41' E 029°20'0 0.0
2015-Mar-21 10:27N 40°41' E 029°20'0 0.0
2015-Mar-21 09:33N 40°41' E 029°20'0 0.0
2015-Mar-21 08:33N 40°42' E 029°20'0 0.0
2015-Mar-21 07:21N 40°42' E 029°20'0 0.3
2015-Mar-21 06:33N 40°42' E 029°20'0 0.2
2015-Mar-21 05:25N 40°42' E 029°20'0 0.1
2015-Mar-21 04:31N 40°42' E 029°20'0 0.0
2015-Mar-21 03:31N 40°42' E 029°20'0 0.0
2015-Mar-21 02:31N 40°42' E 029°20'0 0.0
2015-Mar-21 01:31N 40°42' E 029°20'0 0.0
2015-Mar-21 00:25N 40°42' E 029°20'0 0.0
2015-Mar-20 23:31N 40°42' E 029°20'0 0.0
2015-Mar-20 22:31N 40°42' E 029°20'0 0.3
2015-Mar-20 21:32N 40°42' E 029°19'5 4.6
2015-Mar-20 20:33N 40°43' E 029°14'1413.5
2015-Mar-20 19:33N 40°44' E 028°56'1212.2
2015-Mar-20 18:32N 40°44' E 028°39'  
Track history (hours):
 
Tides and Currents Weather Stations Pressure Air Temp Water Temp Dewpoint Dewpoint Depression Visibility Wind Speed Wind Dir Waves Ship Positions

Atlantic Elm

Last reported at 2015-Mar-29 10:29 UTC. Time now 2015-Mar-29 10:44 UTC.
Position N 40°43' E 029°28'.

Length 190 m; draft 3.7 m.

Type: Cargo ship. MMSI: 229081000.

Date/timePositionNaut miles runAvg speedWind from/ knotsBaromVisibWave heightAir tempDewpointWater temp
2015-Mar-29 10:29N 40°43' E 029°28'0 0.0
2015-Mar-29 09:29N 40°43' E 029°28'0 0.0
2015-Mar-29 08:29N 40°43' E 029°28'0 0.0
2015-Mar-29 07:11N 40°43' E 029°28'0 0.0
2015-Mar-29 06:23N 40°43' E 029°28'0 0.0
2015-Mar-29 05:29N 40°43' E 029°28'0 0.0
2015-Mar-29 04:05N 40°43' E 029°28'0 0.0
2015-Mar-29 03:23N 40°43' E 029°28'0 0.0
2015-Mar-29 02:23N 40°43' E 029°28'0 0.0
2015-Mar-29 01:11N 40°43' E 029°28'0 0.0
2015-Mar-29 00:23N 40°43' E 029°28'0 0.0
2015-Mar-28 23:29N 40°43' E 029°28'0 0.0
2015-Mar-28 22:17N 40°43' E 029°28'0 0.0
2015-Mar-28 20:23N 40°43' E 029°28'0 0.0
2015-Mar-28 19:29N 40°43' E 029°28'0 0.0
2015-Mar-28 18:32N 40°43' E 029°28'0 0.0
2015-Mar-28 16:32N 40°43' E 029°28'0 0.0
2015-Mar-28 14:26N 40°43' E 029°28'0 0.0
2015-Mar-28 13:32N 40°43' E 029°28'0 0.0
2015-Mar-28 12:32N 40°43' E 029°28'0 0.0
2015-Mar-28 11:32N 40°43' E 029°28'0 0.0
2015-Mar-28 10:26N 40°43' E 029°28'0 0.0
2015-Mar-28 09:32N 40°43' E 029°28'0 0.0
2015-Mar-28 08:32N 40°43' E 029°28'0 0.0
2015-Mar-28 07:26N 40°43' E 029°28'0 0.0
2015-Mar-28 06:32N 40°43' E 029°28'0 0.0
2015-Mar-27 16:26N 40°43' E 029°28'0 0.0
2015-Mar-27 15:32N 40°43' E 029°28'0 0.0
2015-Mar-27 14:32N 40°43' E 029°28'0 0.0
2015-Mar-27 13:08N 40°43' E 029°28'0 0.0
2015-Mar-25 15:27N 40°43' E 029°28'0 0.0
2015-Mar-25 14:03N 40°43' E 029°28'0 0.0
2015-Mar-24 12:13N 40°43' E 029°28'  
2015-Mar-21 15:20N 40°43' E 029°28'0 0.0
2015-Mar-21 14:33N 40°43' E 029°28'4 3.9
2015-Mar-21 13:32N 40°43' E 029°23'3 2.3
2015-Mar-21 12:15N 40°41' E 029°20'0 0.0
2015-Mar-21 11:09N 40°41' E 029°20'0 0.0
2015-Mar-21 10:27N 40°41' E 029°20'0 0.0
2015-Mar-21 09:33N 40°41' E 029°20'0 0.0
2015-Mar-21 08:33N 40°42' E 029°20'0 0.0
2015-Mar-21 07:21N 40°42' E 029°20'0 0.3
2015-Mar-21 06:33N 40°42' E 029°20'0 0.2
2015-Mar-21 05:25N 40°42' E 029°20'0 0.1
2015-Mar-21 04:31N 40°42' E 029°20'0 0.0
2015-Mar-21 03:31N 40°42' E 029°20'0 0.0
2015-Mar-21 02:31N 40°42' E 029°20'0 0.0
2015-Mar-21 01:31N 40°42' E 029°20'0 0.0
2015-Mar-21 00:25N 40°42' E 029°20'0 0.0
2015-Mar-20 23:31N 40°42' E 029°20'0 0.0
2015-Mar-20 22:31N 40°42' E 029°20'0 0.3
2015-Mar-20 21:32N 40°42' E 029°19'5 4.6
2015-Mar-20 20:33N 40°43' E 029°14'1413.5
2015-Mar-20 19:33N 40°44' E 028°56'1212.2
2015-Mar-20 18:32N 40°44' E 028°39'  

Dump ship's entire track history